Lower Swatara, Pennsylvania
Current Conditions -  °F | °C
As of 6:56 PM on Monday 20 Oct 2014 (Local Time) from KMDT Reporting Station
Overcast Overcast  
Wind Chill: 56°   Ceiling: 13000
Heat Index: 56°   Visibility: 10mi
Dew Point: 48°   Wind: 0mph
Humidity: 75%   Direction: NA
Pressure: 29.94"   Gusts: NA
Location:  40.1873°N, 76.6948°W
Report Text: KMDT 202256Z 00000KT 10SM SCT070 BKN130 OVC250 13/09 A2994 RMK AO2 SLP139 T01330089
Loading
Personal Weather Stations






























Interactive Weather Map
Tropical Storm Tracking
New forecast layout! Learn more

10-Day Weather Forecast

Advertisements
Track Severe Weather on mobile